Time;durP1;ratioP1;P1;durP2;ratioP2;P2;SDS_P1;SDS_P2;PMS_P1;PMS_P2;Temp;Humidity;BMP_temperature;BMP_pressure;BME280_temperature;BME280_humidity;BME280_pressure;Samples;Min_cycle;Max_cycle;Signal;HPM_P1;HPM_P2
2021/09/08 00:01:46;;;;;;;15.57;12.23;;;;;;;;;;4916260;29;20759;-89
2021/09/08 00:04:11;;;;;;;17.48;12.65;;;;;;;;;;4926087;29;20035;-90
2021/09/08 00:06:36;;;;;;;14.82;11.27;;;;;;;;;;4910813;29;20023;-89
2021/09/08 00:09:01;;;;;;;17.53;10.87;;;;;;;;;;4922884;29;20039;-89
2021/09/08 00:11:27;;;;;;;14.18;10.82;;;;;;;;;;4922599;29;20298;-88
2021/09/08 00:13:52;;;;;;;13.27;11.07;;;;;;;;;;4926965;29;20047;-90
2021/09/08 00:16:17;;;;;;;16.30;10.93;;;;;;;;;;4921456;29;20024;-88
2021/09/08 00:18:43;;;;;;;17.52;12.13;;;;;;;;;;4926538;29;20028;-89
2021/09/08 00:21:08;;;;;;;15.82;11.13;;;;;;;;;;4929089;29;20065;-90
2021/09/08 00:23:34;;;;;;;18.02;11.02;;;;;;;;;;4919303;29;20027;-90
2021/09/08 00:25:59;;;;;;;14.90;11.25;;;;;;;;;;4925668;29;20028;-89
2021/09/08 00:28:24;;;;;;;13.95;11.00;;;;;;;;;;4927515;29;20047;-88
2021/09/08 00:30:50;;;;;;;14.60;11.03;;;;;;;;;;4910631;29;20020;-89
2021/09/08 00:33:15;;;;;;;12.90;10.63;;;;;;;;;;4929708;29;20071;-89
2021/09/08 00:35:41;;;;;;;13.30;10.77;;;;;;;;;;4910354;29;20039;-89
2021/09/08 00:38:12;;;;;;;14.48;11.05;;;;;;;;;;4930123;29;20028;-88
2021/09/08 00:40:38;;;;;;;16.38;11.95;;;;;;;;;;4922835;29;20023;-89
2021/09/08 00:43:04;;;;;;;15.07;12.02;;;;;;;;;;4919711;29;20135;-88
2021/09/08 00:45:29;;;;;;;16.80;11.83;;;;;;;;;;4932058;29;20048;-89
2021/09/08 00:47:54;;;;;;;18.60;12.00;;;;;;;;;;4916563;29;20095;-88
2021/09/08 00:50:20;;;;;;;15.98;11.50;;;;;;;;;;4920716;29;20032;-89
2021/09/08 00:52:46;;;;;;;13.45;11.05;;;;;;;;;;4919380;29;20076;-88
2021/09/08 00:55:12;;;;;;;16.92;11.70;;;;;;;;;;4925637;29;20035;-89
2021/09/08 00:57:37;;;;;;;16.75;11.80;;;;;;;;;;4920024;29;20056;-92
2021/09/08 01:00:03;;;;;;;15.73;11.23;;;;;;;;;;4930471;29;20020;-89
2021/09/08 01:02:28;;;;;;;13.93;11.07;;;;;;;;;;4925033;29;20054;-88
2021/09/08 01:04:53;;;;;;;15.82;11.57;;;;;;;;;;4908882;29;20023;-88
2021/09/08 01:07:19;;;;;;;15.97;12.10;;;;;;;;;;4924391;29;20027;-87
2021/09/08 01:09:46;;;;;;;15.10;11.32;;;;;;;;;;4906401;29;20597;-87
2021/09/08 01:12:11;;;;;;;14.70;12.05;;;;;;;;;;4928020;29;20027;-87
2021/09/08 01:14:37;;;;;;;14.70;11.38;;;;;;;;;;4928378;29;20030;-87
2021/09/08 01:17:02;;;;;;;15.10;10.45;;;;;;;;;;4922217;29;20094;-88
2021/09/08 01:19:27;;;;;;;14.15;10.57;;;;;;;;;;4924331;29;20064;-86
2021/09/08 01:21:53;;;;;;;15.52;10.82;;;;;;;;;;4927405;29;20032;-87
2021/09/08 01:24:18;;;;;;;15.98;11.65;;;;;;;;;;4915067;29;20027;-88
2021/09/08 01:26:45;;;;;;;15.32;12.13;;;;;;;;;;4930665;29;20058;-89
2021/09/08 01:29:10;;;;;;;16.70;12.27;;;;;;;;;;4926122;29;20024;-88
2021/09/08 01:31:36;;;;;;;16.58;11.35;;;;;;;;;;4918534;29;20028;-89
2021/09/08 01:34:02;;;;;;;17.77;12.13;;;;;;;;;;4925223;29;20036;-88
2021/09/08 01:36:27;;;;;;;13.57;10.98;;;;;;;;;;4927740;29;20023;-88
2021/09/08 01:38:53;;;;;;;13.57;10.80;;;;;;;;;;4929583;29;20487;-87
2021/09/08 01:41:18;;;;;;;17.83;12.35;;;;;;;;;;4922097;29;20027;-88
2021/09/08 01:43:45;;;;;;;16.42;11.02;;;;;;;;;;4934082;29;20039;-87
2021/09/08 01:46:17;;;;;;;19.35;12.02;;;;;;;;;;4925177;29;20016;-88
2021/09/08 01:48:42;;;;;;;15.20;12.32;;;;;;;;;;4917049;29;20370;-88
2021/09/08 01:51:07;;;;;;;13.75;11.10;;;;;;;;;;4931565;29;20110;-88
2021/09/08 01:53:32;;;;;;;16.70;11.77;;;;;;;;;;4919964;29;20023;-89
2021/09/08 01:55:58;;;;;;;14.07;11.02;;;;;;;;;;4923224;29;20364;-89
2021/09/08 01:58:23;;;;;;;15.53;11.87;;;;;;;;;;4927863;29;20032;-91
2021/09/08 02:00:48;;;;;;;16.33;11.77;;;;;;;;;;4930467;29;20260;-89
2021/09/08 02:03:14;;;;;;;14.80;11.10;;;;;;;;;;4921884;29;20035;-89
2021/09/08 02:05:39;;;;;;;14.83;11.50;;;;;;;;;;4926258;29;20286;-89
2021/09/08 02:08:04;;;;;;;14.20;11.40;;;;;;;;;;4917261;29;20114;-89
2021/09/08 02:10:30;;;;;;;17.95;11.60;;;;;;;;;;4930089;29;20315;-89
2021/09/08 02:12:55;;;;;;;17.17;12.82;;;;;;;;;;4932926;29;20035;-87
2021/09/08 02:15:20;;;;;;;20.10;12.50;;;;;;;;;;4920408;29;20020;-87
2021/09/08 02:17:45;;;;;;;15.43;11.53;;;;;;;;;;4928315;29;20189;-88
2021/09/08 02:20:11;;;;;;;17.40;12.40;;;;;;;;;;4923630;29;20276;-88
2021/09/08 02:22:37;;;;;;;17.27;11.63;;;;;;;;;;4923229;29;20016;-89
2021/09/08 02:25:02;;;;;;;14.77;11.68;;;;;;;;;;4927900;29;20106;-90
2021/09/08 02:27:27;;;;;;;16.20;12.27;;;;;;;;;;4927175;29;20020;-90
2021/09/08 02:29:53;;;;;;;18.50;11.93;;;;;;;;;;4925043;29;20036;-89
2021/09/08 02:32:18;;;;;;;15.40;11.73;;;;;;;;;;4914585;29;20028;-87
2021/09/08 02:34:44;;;;;;;14.38;12.10;;;;;;;;;;4933486;29;20040;-88
2021/09/08 02:37:09;;;;;;;15.32;10.88;;;;;;;;;;4928527;29;20102;-89
2021/09/08 02:39:34;;;;;;;19.47;12.63;;;;;;;;;;4928341;29;20059;-89
2021/09/08 02:42:00;;;;;;;16.67;12.47;;;;;;;;;;4927296;29;20118;-89
2021/09/08 02:44:25;;;;;;;18.63;12.02;;;;;;;;;;4921749;29;20283;-89
2021/09/08 02:46:50;;;;;;;14.55;11.77;;;;;;;;;;4917315;29;20115;-89
2021/09/08 02:49:17;;;;;;;18.60;13.73;;;;;;;;;;4927009;29;20038;-89
2021/09/08 02:51:42;;;;;;;18.63;12.25;;;;;;;;;;4932334;29;20035;-89
2021/09/08 02:54:07;;;;;;;15.87;11.83;;;;;;;;;;4927590;29;20096;-89
2021/09/08 02:56:33;;;;;;;15.70;11.60;;;;;;;;;;4921404;29;20252;-88
2021/09/08 02:58:58;;;;;;;19.07;14.73;;;;;;;;;;4924857;29;20031;-89
2021/09/08 03:01:23;;;;;;;17.50;12.17;;;;;;;;;;4922804;29;20264;-88
2021/09/08 03:03:48;;;;;;;18.50;13.00;;;;;;;;;;4918203;29;20027;-87
2021/09/08 03:06:14;;;;;;;16.73;12.13;;;;;;;;;;4928491;29;20328;-89
2021/09/08 03:08:39;;;;;;;18.20;12.30;;;;;;;;;;4915658;29;20267;-89
2021/09/08 03:11:04;;;;;;;19.90;12.43;;;;;;;;;;4905835;29;20052;-89
2021/09/08 03:13:30;;;;;;;16.73;12.00;;;;;;;;;;4922104;29;20283;-89
2021/09/08 03:15:55;;;;;;;20.27;12.05;;;;;;;;;;4920274;29;20361;-88
2021/09/08 03:18:20;;;;;;;17.00;12.43;;;;;;;;;;4924397;29;20024;-90
2021/09/08 03:20:46;;;;;;;14.95;11.73;;;;;;;;;;4929825;29;20611;-91
2021/09/08 03:23:11;;;;;;;14.80;11.60;;;;;;;;;;4922911;29;20034;-89
2021/09/08 03:25:36;;;;;;;17.13;13.30;;;;;;;;;;4926369;29;20063;-88
2021/09/08 03:28:02;;;;;;;15.95;12.27;;;;;;;;;;4929099;29;20039;-88
2021/09/08 03:30:27;;;;;;;16.73;12.40;;;;;;;;;;4909987;29;20032;-87
2021/09/08 03:32:53;;;;;;;16.60;12.85;;;;;;;;;;4925947;29;20121;-88
2021/09/08 03:35:18;;;;;;;15.43;11.65;;;;;;;;;;4928785;29;20040;-88
2021/09/08 03:37:44;;;;;;;14.85;11.68;;;;;;;;;;4920701;29;20300;-89
2021/09/08 03:40:09;;;;;;;17.02;12.52;;;;;;;;;;4917579;29;20054;-89
2021/09/08 03:42:36;;;;;;;17.55;13.32;;;;;;;;;;4912178;29;20031;-88
2021/09/08 03:45:02;;;;;;;14.50;11.73;;;;;;;;;;4919942;29;20459;-91
2021/09/08 03:47:27;;;;;;;17.27;13.20;;;;;;;;;;4910203;29;20052;-89
2021/09/08 03:49:52;;;;;;;16.95;11.93;;;;;;;;;;4932917;29;20510;-89
2021/09/08 03:52:18;;;;;;;17.67;12.50;;;;;;;;;;4926925;29;20043;-89
2021/09/08 03:54:44;;;;;;;18.45;13.73;;;;;;;;;;4923861;29;20619;-89
2021/09/08 03:57:10;;;;;;;18.10;12.18;;;;;;;;;;4925352;29;20028;-89
2021/09/08 03:59:35;;;;;;;17.23;12.98;;;;;;;;;;4929603;29;20020;-90
2021/09/08 04:02:00;;;;;;;17.00;12.85;;;;;;;;;;4922014;29;20048;-91
2021/09/08 04:04:26;;;;;;;18.07;13.17;;;;;;;;;;4925028;29;20024;-89
2021/09/08 04:06:51;;;;;;;16.35;12.48;;;;;;;;;;4928336;29;20283;-89
2021/09/08 04:09:16;;;;;;;16.10;12.70;;;;;;;;;;4927106;29;20032;-84
2021/09/08 04:11:43;;;;;;;17.73;11.95;;;;;;;;;;4918136;29;20034;-89
2021/09/08 04:14:08;;;;;;;15.10;12.45;;;;;;;;;;4921937;29;20510;-90
2021/09/08 04:16:33;;;;;;;15.95;12.07;;;;;;;;;;4931555;29;20055;-91
2021/09/08 04:18:59;;;;;;;17.90;12.50;;;;;;;;;;4941249;29;20053;-89
2021/09/08 04:21:24;;;;;;;17.00;13.63;;;;;;;;;;4934413;29;20338;-95
2021/09/08 04:23:50;;;;;;;14.45;11.75;;;;;;;;;;4924201;29;20020;-87
2021/09/08 04:26:15;;;;;;;16.55;12.75;;;;;;;;;;4931285;29;20055;-87
2021/09/08 04:28:41;;;;;;;21.48;13.13;;;;;;;;;;4919543;29;20028;-87
2021/09/08 04:31:16;;;;;;;15.65;11.85;;;;;;;;;;4924646;29;20024;-88
2021/09/08 04:33:41;;;;;;;20.35;12.43;;;;;;;;;;4922549;29;20108;-88
2021/09/08 04:36:07;;;;;;;18.35;14.25;;;;;;;;;;4913988;29;20024;-89
2021/09/08 04:38:32;;;;;;;20.50;14.15;;;;;;;;;;4906286;29;20055;-88
2021/09/08 04:40:58;;;;;;;17.60;14.13;;;;;;;;;;4912354;29;20024;-91
2021/09/08 04:43:23;;;;;;;16.67;14.05;;;;;;;;;;4908525;29;20035;-89
2021/09/08 04:46:14;;;;;;;17.45;13.20;;;;;;;;;;4907228;29;20047;-91
2021/09/08 04:48:39;;;;;;;16.65;13.63;;;;;;;;;;4901576;29;20443;-88
2021/09/08 04:51:05;;;;;;;17.60;12.93;;;;;;;;;;4909608;29;20016;-89
2021/09/08 04:53:38;;;;;;;17.77;14.10;;;;;;;;;;4907089;29;20379;-90
2021/09/08 04:56:09;;;;;;;20.40;13.43;;;;;;;;;;4919077;29;20169;-95
2021/09/08 05:02:02;;;;;;;19.83;14.40;;;;;;;;;;4885505;29;20726;-88
2021/09/08 05:04:52;;;;;;;18.77;13.13;;;;;;;;;;4914299;29;20079;-90
2021/09/08 05:07:17;;;;;;;19.02;12.98;;;;;;;;;;4901980;29;20024;-88
2021/09/08 05:09:43;;;;;;;17.85;13.90;;;;;;;;;;4909346;29;20740;-86
2021/09/08 05:12:10;;;;;;;16.83;13.48;;;;;;;;;;4904891;29;20035;-89
2021/09/08 05:14:35;;;;;;;17.67;13.88;;;;;;;;;;4911824;29;20527;-86
2021/09/08 05:17:05;;;;;;;17.80;13.73;;;;;;;;;;4910221;29;20027;-87
2021/09/08 05:19:30;;;;;;;17.00;14.20;;;;;;;;;;4905555;29;20076;-87
2021/09/08 05:21:55;;;;;;;19.83;13.88;;;;;;;;;;4902987;29;20502;-86
2021/09/08 05:24:21;;;;;;;16.63;13.10;;;;;;;;;;4902646;29;20052;-87
2021/09/08 05:26:47;;;;;;;17.50;14.67;;;;;;;;;;4905816;29;20050;-88
2021/09/08 05:29:13;;;;;;;16.67;12.85;;;;;;;;;;4902233;29;20739;-88
2021/09/08 05:31:39;;;;;;;17.85;13.88;;;;;;;;;;4918948;29;20033;-87
2021/09/08 05:34:04;;;;;;;19.47;13.53;;;;;;;;;;4924312;29;20052;-87
2021/09/08 05:36:29;;;;;;;18.02;13.60;;;;;;;;;;4924891;29;20333;-87
2021/09/08 05:38:55;;;;;;;19.05;14.68;;;;;;;;;;4918145;29;20051;-86
2021/09/08 05:41:20;;;;;;;17.83;13.40;;;;;;;;;;4923440;29;20025;-85
2021/09/08 05:43:45;;;;;;;18.17;14.80;;;;;;;;;;4926731;29;20091;-91
2021/09/08 05:46:14;;;;;;;19.17;14.73;;;;;;;;;;4925108;29;20323;-89
2021/09/08 05:48:39;;;;;;;20.92;14.60;;;;;;;;;;4917036;29;20453;-89
2021/09/08 05:51:04;;;;;;;19.33;14.55;;;;;;;;;;4904896;29;20052;-88
2021/09/08 05:53:37;;;;;;;16.60;13.95;;;;;;;;;;4915249;29;20242;-91
2021/09/08 05:56:03;;;;;;;17.80;14.35;;;;;;;;;;4905960;29;20048;-88
2021/09/08 05:58:28;;;;;;;19.65;15.13;;;;;;;;;;4909793;29;20040;-81
2021/09/08 06:00:53;;;;;;;19.23;13.93;;;;;;;;;;4905253;29;20028;-86
2021/09/08 06:03:18;;;;;;;19.65;14.57;;;;;;;;;;4903953;29;20643;-85
2021/09/08 06:05:44;;;;;;;19.20;15.68;;;;;;;;;;4901442;29;20108;-90
2021/09/08 06:08:18;;;;;;;18.00;14.45;;;;;;;;;;4904552;29;20112;-86
2021/09/08 06:10:53;;;;;;;18.95;14.98;;;;;;;;;;4908395;29;20032;-87
2021/09/08 06:13:24;;;;;;;19.42;15.50;;;;;;;;;;4907581;29;20397;-87
2021/09/08 06:15:49;;;;;;;20.85;14.93;;;;;;;;;;4902380;29;20169;-84
2021/09/08 06:18:17;;;;;;;18.38;14.75;;;;;;;;;;4905594;29;20495;-86
2021/09/08 06:20:45;;;;;;;17.88;13.55;;;;;;;;;;4909225;29;20419;-87
2021/09/08 06:23:20;;;;;;;19.92;15.32;;;;;;;;;;4905579;29;20372;-86
2021/09/08 06:26:12;;;;;;;21.27;15.88;;;;;;;;;;4900095;29;20388;-86
2021/09/08 06:28:48;;;;;;;20.95;15.25;;;;;;;;;;4909462;29;20428;-88
2021/09/08 06:31:50;;;;;;;20.38;15.02;;;;;;;;;;4904741;29;20009;-89
2021/09/08 06:34:25;;;;;;;16.73;13.73;;;;;;;;;;4910402;29;20055;-89
2021/09/08 06:36:54;;;;;;;19.80;15.38;;;;;;;;;;4926230;29;20294;-88
2021/09/08 06:39:25;;;;;;;20.23;13.52;;;;;;;;;;4933780;29;20020;-87
2021/09/08 06:41:59;;;;;;;18.45;14.82;;;;;;;;;;4920508;29;20016;-87
2021/09/08 06:44:27;;;;;;;19.20;13.65;;;;;;;;;;4927847;29;20516;-88
2021/09/08 06:46:52;;;;;;;18.50;15.27;;;;;;;;;;4921508;29;20031;-86
2021/09/08 06:49:19;;;;;;;34.85;29.00;;;;;;;;;;4927418;29;20036;-85
2021/09/08 06:51:48;;;;;;;27.23;17.95;;;;;;;;;;4921142;29;20117;-84
2021/09/08 06:54:16;;;;;;;18.05;13.35;;;;;;;;;;4911384;29;20024;-81
2021/09/08 06:56:42;;;;;;;20.38;16.02;;;;;;;;;;4920145;29;20024;-80
2021/09/08 06:59:07;;;;;;;14.75;11.82;;;;;;;;;;4927003;29;20023;-80
2021/09/08 07:01:33;;;;;;;17.50;12.48;;;;;;;;;;4924010;29;20371;-81
2021/09/08 07:03:58;;;;;;;14.10;11.40;;;;;;;;;;4924307;29;20043;-81
2021/09/08 07:06:24;;;;;;;16.00;11.98;;;;;;;;;;4922131;29;20086;-82
2021/09/08 07:08:50;;;;;;;13.93;11.23;;;;;;;;;;4924604;29;20626;-83
2021/09/08 07:11:15;;;;;;;16.00;12.15;;;;;;;;;;4919250;29;20129;-82
2021/09/08 07:13:41;;;;;;;13.93;10.38;;;;;;;;;;4926349;29;20087;-81
2021/09/08 07:16:06;;;;;;;18.00;12.00;;;;;;;;;;4920799;29;20117;-82
2021/09/08 07:18:32;;;;;;;18.50;11.18;;;;;;;;;;4922440;29;20023;-83
2021/09/08 07:21:03;;;;;;;13.85;11.20;;;;;;;;;;4918003;29;20031;-83
2021/09/08 07:23:29;;;;;;;14.90;11.40;;;;;;;;;;4907348;29;20030;-82
2021/09/08 07:25:54;;;;;;;15.40;10.85;;;;;;;;;;4925548;29;20102;-85
2021/09/08 07:28:22;;;;;;;13.48;9.85;;;;;;;;;;4923210;29;20471;-83
2021/09/08 07:30:53;;;;;;;14.00;10.32;;;;;;;;;;4919045;29;20020;-82
2021/09/08 07:33:18;;;;;;;15.02;11.13;;;;;;;;;;4924050;29;20023;-80
2021/09/08 07:35:44;;;;;;;17.15;11.10;;;;;;;;;;4923578;29;20046;-79
2021/09/08 07:38:09;;;;;;;16.27;12.37;;;;;;;;;;4918218;29;20043;-80
2021/09/08 07:40:34;;;;;;;21.47;13.27;;;;;;;;;;4928642;29;20631;-85
2021/09/08 07:43:00;;;;;;;15.80;11.50;;;;;;;;;;4915899;29;20495;-81
2021/09/08 07:45:25;;;;;;;15.30;10.43;;;;;;;;;;4924733;29;20039;-81
2021/09/08 07:47:50;;;;;;;19.05;12.90;;;;;;;;;;4922934;29;20020;-79
2021/09/08 07:50:18;;;;;;;16.73;13.57;;;;;;;;;;4928690;29;20016;-83
2021/09/08 07:52:43;;;;;;;19.83;11.90;;;;;;;;;;4910877;29;20374;-84
2021/09/08 07:55:09;;;;;;;14.00;10.80;;;;;;;;;;4927298;29;20043;-89
2021/09/08 07:57:34;;;;;;;13.02;10.07;;;;;;;;;;4923222;29;20024;-88
2021/09/08 07:59:59;;;;;;;14.43;11.10;;;;;;;;;;4932785;29;20016;-83
2021/09/08 08:02:24;;;;;;;18.40;11.60;;;;;;;;;;4929248;29;20039;-81
2021/09/08 08:04:49;;;;;;;15.97;12.20;;;;;;;;;;4928462;29;20366;-80
2021/09/08 08:07:15;;;;;;;14.15;11.75;;;;;;;;;;4927887;29;20176;-80
2021/09/08 08:09:42;;;;;;;23.70;10.88;;;;;;;;;;4921621;29;20028;-80
2021/09/08 08:12:09;;;;;;;14.18;11.18;;;;;;;;;;4924792;29;20020;-82
2021/09/08 08:14:34;;;;;;;15.75;12.05;;;;;;;;;;4925279;29;20056;-80
2021/09/08 08:16:59;;;;;;;18.17;10.90;;;;;;;;;;4920301;29;20024;-81
2021/09/08 08:19:25;;;;;;;15.95;10.05;;;;;;;;;;4925808;29;20355;-81
2021/09/08 08:21:50;;;;;;;13.97;9.53;;;;;;;;;;4922108;29;20032;-82
2021/09/08 08:24:16;;;;;;;12.95;9.93;;;;;;;;;;4922313;29;20276;-86
2021/09/08 08:26:41;;;;;;;12.85;10.13;;;;;;;;;;4913609;29;20035;-87
2021/09/08 08:29:06;;;;;;;11.83;9.13;;;;;;;;;;4922525;29;20028;-82
2021/09/08 08:31:32;;;;;;;14.02;10.02;;;;;;;;;;4926539;29;20024;-85
2021/09/08 08:33:57;;;;;;;24.73;21.15;;;;;;;;;;4928306;29;20529;-86
2021/09/08 08:36:22;;;;;;;11.77;9.27;;;;;;;;;;4923228;29;20074;-87
2021/09/08 08:38:48;;;;;;;12.60;9.32;;;;;;;;;;4928992;29;20027;-87
2021/09/08 08:41:13;;;;;;;15.18;9.70;;;;;;;;;;4928000;29;20019;-87
2021/09/08 08:43:39;;;;;;;14.35;9.13;;;;;;;;;;4905928;29;20024;-87
2021/09/08 08:46:04;;;;;;;13.70;8.90;;;;;;;;;;4930720;29;20038;-84
2021/09/08 08:48:30;;;;;;;11.85;9.43;;;;;;;;;;4925909;29;20056;-94
2021/09/08 08:50:55;;;;;;;10.38;8.38;;;;;;;;;;4931175;29;20479;-86
2021/09/08 08:53:21;;;;;;;11.90;8.30;;;;;;;;;;4924561;29;20024;-89
2021/09/08 08:55:46;;;;;;;13.02;7.90;;;;;;;;;;4930996;29;20494;-90
2021/09/08 08:58:11;;;;;;;11.13;7.13;;;;;;;;;;4924181;29;20030;-89
2021/09/08 09:00:37;;;;;;;12.07;8.95;;;;;;;;;;4930730;29;20336;-86
2021/09/08 09:03:04;;;;;;;13.20;7.85;;;;;;;;;;4928042;29;20020;-86
2021/09/08 09:05:35;;;;;;;10.55;6.85;;;;;;;;;;4920277;29;20420;-85
2021/09/08 09:08:00;;;;;;;10.32;6.93;;;;;;;;;;4925990;29;20360;-83
2021/09/08 09:10:26;;;;;;;10.52;7.90;;;;;;;;;;4924426;29;20035;-87
2021/09/08 09:12:52;;;;;;;9.65;7.05;;;;;;;;;;4921551;29;20382;-84
2021/09/08 09:15:19;;;;;;;15.70;10.93;;;;;;;;;;4928165;29;20012;-85
2021/09/08 09:17:45;;;;;;;10.77;8.07;;;;;;;;;;4923166;29;20075;-88
2021/09/08 09:20:21;;;;;;;10.25;7.07;;;;;;;;;;4927569;29;20016;-87
2021/09/08 09:44:21;;;;;;;9.85;7.22;;;;;;;;;;4908816;29;20059;-91
2021/09/08 09:46:46;;;;;;;9.10;7.68;;;;;;;;;;4910164;29;20431;-90
2021/09/08 09:49:13;;;;;;;12.85;10.65;;;;;;;;;;4915359;29;20019;-90
2021/09/08 09:51:44;;;;;;;21.10;18.88;;;;;;;;;;4920365;29;20564;-92
2021/09/08 09:54:10;;;;;;;12.43;9.10;;;;;;;;;;4918984;29;20039;-91
2021/09/08 09:56:36;;;;;;;9.35;7.40;;;;;;;;;;4912141;29;20479;-89
2021/09/08 09:59:02;;;;;;;8.18;6.85;;;;;;;;;;4914887;29;20378;-90
2021/09/08 10:01:27;;;;;;;7.80;6.88;;;;;;;;;;4911800;29;20013;-91
2021/09/08 10:03:53;;;;;;;12.45;7.32;;;;;;;;;;4917819;29;20021;-92
2021/09/08 10:06:18;;;;;;;10.68;7.45;;;;;;;;;;4915999;29;20115;-91
2021/09/08 10:11:53;;;;;;;8.60;7.20;;;;;;;;;;4917832;29;20024;-93
2021/09/08 10:14:32;;;;;;;8.07;7.10;;;;;;;;;;4916228;29;20056;-92
2021/09/08 10:17:21;;;;;;;9.43;7.15;;;;;;;;;;4916677;29;20327;-91
2021/09/08 10:34:03;;;;;;;8.35;6.57;;;;;;;;;;4769509;29;20078;-92
2021/09/08 10:36:35;;;;;;;10.55;6.53;;;;;;;;;;4829333;29;20014;-92
2021/09/08 10:39:25;;;;;;;9.77;6.53;;;;;;;;;;4835677;29;20940;-91
2021/09/08 10:41:52;;;;;;;7.57;6.45;;;;;;;;;;4989219;23;20409;-91
2021/09/08 10:44:29;;;;;;;8.23;6.22;;;;;;;;;;4952724;29;20023;-89
2021/09/08 10:54:14;;;;;;;7.18;6.40;;;;;;;;;;4891985;29;20036;-92
2021/09/08 11:01:04;;;;;;;9.20;6.53;;;;;;;;;;4873720;29;20705;-94
2021/09/08 11:03:42;;;;;;;8.07;6.67;;;;;;;;;;4879566;29;20033;-93
2021/09/08 11:06:07;;;;;;;8.65;6.57;;;;;;;;;;4888190;29;20120;-85
2021/09/08 11:08:33;;;;;;;8.10;6.78;;;;;;;;;;4947193;29;20474;-86
2021/09/08 11:11:16;;;;;;;8.07;7.03;;;;;;;;;;4933323;29;20102;-84
2021/09/08 11:13:43;;;;;;;8.63;6.90;;;;;;;;;;4930377;29;20417;-84
2021/09/08 11:16:19;;;;;;;10.07;9.07;;;;;;;;;;4949318;28;20498;-85
2021/09/08 11:18:44;;;;;;;13.60;12.20;;;;;;;;;;4950364;29;20574;-85
2021/09/08 11:21:09;;;;;;;20.00;18.20;;;;;;;;;;4950169;29;20042;-85
2021/09/08 11:23:35;;;;;;;10.38;8.65;;;;;;;;;;4948690;28;20023;-85
2021/09/08 11:26:08;;;;;;;12.33;10.03;;;;;;;;;;4949803;29;20019;-83
2021/09/08 11:28:34;;;;;;;21.33;19.42;;;;;;;;;;4949104;29;20075;-85
2021/09/08 11:31:08;;;;;;;21.02;19.10;;;;;;;;;;4945285;29;20047;-86
2021/09/08 11:33:35;;;;;;;11.60;10.00;;;;;;;;;;4949427;29;20023;-86
2021/09/08 11:36:00;;;;;;;13.15;11.75;;;;;;;;;;4950571;29;20472;-88
2021/09/08 11:38:27;;;;;;;9.50;8.45;;;;;;;;;;4947911;29;20054;-86
2021/09/08 11:40:54;;;;;;;10.90;9.77;;;;;;;;;;4947620;29;20437;-89
2021/09/08 11:43:36;;;;;;;16.10;12.98;;;;;;;;;;4933207;29;20047;-87
2021/09/08 11:46:24;;;;;;;17.08;14.35;;;;;;;;;;4931467;29;20058;-85
2021/09/08 11:48:49;;;;;;;13.93;12.63;;;;;;;;;;4932254;29;20174;-86
2021/09/08 11:51:16;;;;;;;14.73;13.25;;;;;;;;;;4927610;29;20359;-89
2021/09/08 11:53:42;;;;;;;13.15;11.85;;;;;;;;;;4932320;29;20378;-88
2021/09/08 11:56:11;;;;;;;11.70;10.50;;;;;;;;;;4930427;29;20024;-85
2021/09/08 11:58:38;;;;;;;8.68;7.55;;;;;;;;;;4931401;29;20272;-88
2021/09/08 12:01:08;;;;;;;10.70;8.98;;;;;;;;;;4931386;29;20395;-87
2021/09/08 12:03:35;;;;;;;9.90;7.05;;;;;;;;;;4930480;29;20031;-88
2021/09/08 12:06:08;;;;;;;9.40;8.32;;;;;;;;;;4925572;29;20103;-87
2021/09/08 12:08:34;;;;;;;10.05;7.30;;;;;;;;;;4930446;29;20055;-89
2021/09/08 12:10:59;;;;;;;12.10;8.80;;;;;;;;;;4931783;29;20106;-86
2021/09/08 12:13:29;;;;;;;12.40;9.20;;;;;;;;;;4930484;29;20610;-85
2021/09/08 12:15:55;;;;;;;11.25;8.40;;;;;;;;;;4929490;29;20111;-87
2021/09/08 12:18:20;;;;;;;9.80;7.07;;;;;;;;;;4929576;29;20102;-86
2021/09/08 12:20:46;;;;;;;9.68;6.25;;;;;;;;;;4931541;29;20390;-84
2021/09/08 12:23:22;;;;;;;10.35;7.97;;;;;;;;;;4930963;29;20459;-84
2021/09/08 12:26:07;;;;;;;8.70;6.97;;;;;;;;;;4932283;29;20398;-85
2021/09/08 12:28:33;;;;;;;9.18;5.93;;;;;;;;;;4930478;29;20024;-84
2021/09/08 12:31:17;;;;;;;11.48;8.82;;;;;;;;;;4931372;29;20030;-86
2021/09/08 12:33:56;;;;;;;16.20;14.38;;;;;;;;;;4929221;29;20359;-84
2021/09/08 12:36:21;;;;;;;9.70;6.65;;;;;;;;;;4933600;29;20071;-85
2021/09/08 12:38:51;;;;;;;10.73;7.10;;;;;;;;;;4933381;29;20434;-85
2021/09/08 12:41:16;;;;;;;;;;;;;;;;;;4934805;29;20135;-84
2021/09/08 12:43:46;;;;;;;9.27;6.77;;;;;;;;;;4933708;29;20412;-84
2021/09/08 12:46:12;;;;;;;9.95;6.78;;;;;;;;;;4933614;29;20028;-82
2021/09/08 12:48:37;;;;;;;8.45;6.63;;;;;;;;;;4934550;29;20028;-84
2021/09/08 12:51:03;;;;;;;9.32;7.47;;;;;;;;;;4931881;29;20051;-83
2021/09/08 12:53:28;;;;;;;8.43;6.53;;;;;;;;;;4934655;29;20700;-83
2021/09/08 12:55:54;;;;;;;17.07;15.23;;;;;;;;;;4934554;29;20035;-84
2021/09/08 12:58:20;;;;;;;12.15;10.23;;;;;;;;;;4933568;29;20054;-85
2021/09/08 13:00:45;;;;;;;8.33;6.53;;;;;;;;;;4933168;29;20015;-85
2021/09/08 13:03:11;;;;;;;10.30;6.57;;;;;;;;;;4934523;29;20119;-82
2021/09/08 13:05:37;;;;;;;7.40;5.75;;;;;;;;;;4934625;29;20195;-84
2021/09/08 13:08:02;;;;;;;9.23;6.50;;;;;;;;;;4934778;29;20438;-84
2021/09/08 13:10:28;;;;;;;10.88;5.95;;;;;;;;;;4946888;29;20022;-85
2021/09/08 13:12:53;;;;;;;8.68;5.47;;;;;;;;;;4951463;29;20031;-83
2021/09/08 13:15:19;;;;;;;9.43;6.03;;;;;;;;;;4936608;29;20023;-83
2021/09/08 13:17:44;;;;;;;7.90;5.60;;;;;;;;;;4922120;29;20015;-83
2021/09/08 13:20:10;;;;;;;9.85;6.70;;;;;;;;;;4933261;29;20034;-84
2021/09/08 13:22:35;;;;;;;6.90;5.20;;;;;;;;;;4936029;29;20039;-89
2021/09/08 13:25:00;;;;;;;6.90;5.60;;;;;;;;;;4922074;29;20496;-85
2021/09/08 13:27:27;;;;;;;7.67;5.87;;;;;;;;;;4937602;29;20024;-86
2021/09/08 13:29:53;;;;;;;7.97;6.07;;;;;;;;;;4932489;29;20454;-87
2021/09/08 13:32:18;;;;;;;9.35;6.03;;;;;;;;;;4932991;29;20102;-84
2021/09/08 13:34:43;;;;;;;8.35;5.78;;;;;;;;;;4933724;29;20016;-84
2021/09/08 13:37:09;;;;;;;8.17;6.00;;;;;;;;;;4913968;29;20031;-83
2021/09/08 13:39:34;;;;;;;7.20;5.47;;;;;;;;;;4933473;29;20511;-83
2021/09/08 13:41:59;;;;;;;8.60;5.90;;;;;;;;;;4932149;29;20053;-83
2021/09/08 13:44:25;;;;;;;7.17;5.83;;;;;;;;;;4932063;29;20467;-83
2021/09/08 13:46:50;;;;;;;11.63;6.80;;;;;;;;;;4929420;29;20510;-85
2021/09/08 13:49:16;;;;;;;9.77;6.50;;;;;;;;;;4933759;29;20023;-86
2021/09/08 13:51:41;;;;;;;7.72;5.88;;;;;;;;;;4932746;29;20023;-83
2021/09/08 13:54:06;;;;;;;8.18;5.43;;;;;;;;;;4932916;29;20026;-83
2021/09/08 13:56:32;;;;;;;7.38;5.68;;;;;;;;;;4931808;29;20016;-85
2021/09/08 13:58:57;;;;;;;8.27;6.72;;;;;;;;;;4931656;29;20031;-84
2021/09/08 14:01:22;;;;;;;7.70;5.27;;;;;;;;;;4931077;29;20024;-84
2021/09/08 14:03:47;;;;;;;9.77;5.83;;;;;;;;;;4925987;29;20505;-83
2021/09/08 14:06:13;;;;;;;6.28;5.30;;;;;;;;;;4931345;29;20356;-84
2021/09/08 14:08:38;;;;;;;8.30;6.50;;;;;;;;;;4931542;29;20027;-84
2021/09/08 14:11:04;;;;;;;7.57;5.50;;;;;;;;;;4933125;29;20027;-83
2021/09/08 14:13:29;;;;;;;7.13;4.70;;;;;;;;;;4915412;29;20284;-84
2021/09/08 14:15:54;;;;;;;12.15;5.05;;;;;;;;;;4932984;29;20404;-83
2021/09/08 14:18:20;;;;;;;8.80;5.00;;;;;;;;;;4932507;29;20114;-84
2021/09/08 14:20:45;;;;;;;13.93;5.83;;;;;;;;;;4931298;29;20061;-83
2021/09/08 14:23:10;;;;;;;9.38;5.72;;;;;;;;;;4932702;29;20020;-83
2021/09/08 14:25:37;;;;;;;13.27;10.10;;;;;;;;;;4931604;29;20015;-82
2021/09/08 14:28:02;;;;;;;9.30;6.10;;;;;;;;;;4931504;29;20024;-84
2021/09/08 14:30:29;;;;;;;6.95;4.75;;;;;;;;;;4932736;29;21059;-85
2021/09/08 14:32:54;;;;;;;7.22;5.03;;;;;;;;;;4931485;29;20028;-84
2021/09/08 14:35:20;;;;;;;8.70;6.07;;;;;;;;;;4932022;29;20552;-83
2021/09/08 14:37:45;;;;;;;8.00;4.72;;;;;;;;;;4932046;29;20019;-84
2021/09/08 14:40:11;;;;;;;7.53;5.93;;;;;;;;;;4931716;29;20027;-84
2021/09/08 14:42:36;;;;;;;7.85;5.60;;;;;;;;;;4930923;29;20047;-82
2021/09/08 14:45:02;;;;;;;7.95;5.63;;;;;;;;;;4932095;29;20027;-82
2021/09/08 14:47:29;;;;;;;6.63;4.57;;;;;;;;;;4931848;29;20075;-84
2021/09/08 14:49:54;;;;;;;6.35;4.35;;;;;;;;;;4930043;29;20036;-83
2021/09/08 14:52:19;;;;;;;5.97;4.73;;;;;;;;;;4929313;29;20028;-83
2021/09/08 14:54:44;;;;;;;9.37;5.60;;;;;;;;;;4931590;29;20115;-83
2021/09/08 14:57:10;;;;;;;7.00;4.83;;;;;;;;;;4932143;29;20493;-82
2021/09/08 14:59:35;;;;;;;6.93;4.50;;;;;;;;;;4931815;29;20083;-83
2021/09/08 15:02:00;;;;;;;8.00;5.10;;;;;;;;;;4931065;29;20723;-82
2021/09/08 15:04:26;;;;;;;8.70;4.87;;;;;;;;;;4930569;29;20032;-84
2021/09/08 15:06:51;;;;;;;7.03;5.00;;;;;;;;;;4932166;29;20466;-82
2021/09/08 15:09:18;;;;;;;8.25;5.60;;;;;;;;;;4932404;29;20260;-82
2021/09/08 15:11:47;;;;;;;5.70;4.20;;;;;;;;;;4930726;29;20543;-82
2021/09/08 15:14:12;;;;;;;;;;;;;;;;;;4928910;29;20032;-84
2021/09/08 15:16:37;;;;;;;6.70;4.60;;;;;;;;;;4914700;29;20316;-82
2021/09/08 15:19:03;;;;;;;5.83;4.67;;;;;;;;;;4929949;29;20554;-83